Time;durP1;ratioP1;P1;durP2;ratioP2;P2;SDS_P1;SDS_P2;PMS_P1;PMS_P2;Temp;Humidity;BMP_temperature;BMP_pressure;BME280_temperature;BME280_humidity;BME280_pressure;Samples;Min_cycle;Max_cycle;Signal;HPM_P1;HPM_P2
2022/10/23 00:00:38;;;;;;;10.83;8.63;;;;;;;;;;5009750;28;20220;-76
2022/10/23 00:03:04;;;;;;;12.10;8.47;;;;;;;;;;5030631;28;20219;-76
2022/10/23 00:05:32;;;;;;;10.37;8.47;;;;;;;;;;5046770;28;20769;-75
2022/10/23 00:08:00;;;;;;;11.60;9.30;;;;;;;;;;5027455;28;20220;-76
2022/10/23 00:10:26;;;;;;;13.00;9.53;;;;;;;;;;5014390;28;20310;-75
2022/10/23 00:12:55;;;;;;;11.10;8.33;;;;;;;;;;5046997;28;20215;-76
2022/10/23 00:15:21;;;;;;;8.57;7.77;;;;;;;;;;5014549;28;20791;-76
2022/10/23 00:17:48;;;;;;;8.23;7.23;;;;;;;;;;5045744;28;20306;-77
2022/10/23 00:20:15;;;;;;;11.60;6.37;;;;;;;;;;5045366;28;20234;-77
2022/10/23 00:22:41;;;;;;;11.10;6.90;;;;;;;;;;5045086;28;20220;-75
2022/10/23 00:25:07;;;;;;;7.67;6.27;;;;;;;;;;5031387;28;20219;-76
2022/10/23 00:27:32;;;;;;;9.37;6.70;;;;;;;;;;5015060;28;20223;-76
2022/10/23 00:30:00;;;;;;;7.67;6.20;;;;;;;;;;5031865;28;20223;-76
2022/10/23 00:32:26;;;;;;;6.00;5.50;;;;;;;;;;5030641;28;20227;-76
2022/10/23 00:34:54;;;;;;;8.00;5.80;;;;;;;;;;5031655;28;20827;-76
2022/10/23 00:37:22;;;;;;;7.87;5.80;;;;;;;;;;5030979;28;20747;-76
2022/10/23 00:39:50;;;;;;;8.33;6.30;;;;;;;;;;5030099;28;20227;-76
2022/10/23 00:42:18;;;;;;;6.70;5.60;;;;;;;;;;5028836;28;20681;-76
2022/10/23 00:44:44;;;;;;;4.07;3.77;;;;;;;;;;5042305;28;20616;-75
2022/10/23 00:47:09;;;;;;;5.63;4.80;;;;;;;;;;5047229;28;20227;-76
2022/10/23 00:49:35;;;;;;;6.07;5.10;;;;;;;;;;5029637;28;20322;-76
2022/10/23 00:52:03;;;;;;;10.90;5.73;;;;;;;;;;5030977;28;20268;-76
2022/10/23 00:54:37;;;;;;;5.43;4.90;;;;;;;;;;4998468;28;20361;-75
2022/10/23 00:57:06;;;;;;;4.10;3.80;;;;;;;;;;5029687;28;20226;-76
2022/10/23 00:59:37;;;;;;;10.83;4.93;;;;;;;;;;5012439;28;20224;-76
2022/10/23 01:02:03;;;;;;;5.60;5.10;;;;;;;;;;5027631;28;20220;-76
2022/10/23 01:04:31;;;;;;;5.00;4.50;;;;;;;;;;5047812;28;20224;-76
2022/10/23 01:07:11;;;;;;;5.10;4.53;;;;;;;;;;5014206;28;20224;-75
2022/10/23 01:10:01;;;;;;;7.00;4.93;;;;;;;;;;5045450;28;20227;-76
2022/10/23 01:12:48;;;;;;;5.50;5.00;;;;;;;;;;4973975;28;20281;-76
2022/10/23 01:15:22;;;;;;;5.30;4.77;;;;;;;;;;5028964;28;20639;-76
2022/10/23 01:17:53;;;;;;;5.37;4.87;;;;;;;;;;5026832;28;20227;-76
2022/10/23 01:20:24;;;;;;;5.60;5.10;;;;;;;;;;5013629;28;20231;-76
2022/10/23 01:23:03;;;;;;;5.97;5.37;;;;;;;;;;5012711;28;20223;-76
2022/10/23 01:25:54;;;;;;;7.57;5.80;;;;;;;;;;5013986;28;20406;-76
2022/10/23 01:28:56;;;;;;;5.50;5.00;;;;;;;;;;5029631;28;20768;-76
2022/10/23 01:31:31;;;;;;;5.50;4.73;;;;;;;;;;5011860;28;20215;-76
2022/10/23 01:33:59;;;;;;;5.03;4.63;;;;;;;;;;5012610;28;20227;-76
2022/10/23 01:36:29;;;;;;;4.93;4.37;;;;;;;;;;5013801;28;20215;-76
2022/10/23 01:39:01;;;;;;;5.13;4.20;;;;;;;;;;4998979;28;20216;-76
2022/10/23 01:41:29;;;;;;;4.60;4.20;;;;;;;;;;5010459;28;20422;-76
2022/10/23 01:44:10;;;;;;;4.97;4.47;;;;;;;;;;5013720;28;20219;-76
2022/10/23 01:46:36;;;;;;;6.97;3.80;;;;;;;;;;5029736;28;20252;-76
2022/10/23 01:49:05;;;;;;;4.70;3.20;;;;;;;;;;4997776;28;20219;-76
2022/10/23 01:51:31;;;;;;;5.70;3.30;;;;;;;;;;4997160;28;20220;-75
2022/10/23 01:54:03;;;;;;;3.60;3.30;;;;;;;;;;4999290;28;20219;-76
2022/10/23 01:56:31;;;;;;;4.73;2.87;;;;;;;;;;4998855;28;20274;-76
2022/10/23 01:59:03;;;;;;;3.40;3.10;;;;;;;;;;5030417;28;20671;-76
2022/10/23 02:01:36;;;;;;;3.53;2.87;;;;;;;;;;5014085;28;20219;-76
2022/10/23 02:04:05;;;;;;;4.00;3.07;;;;;;;;;;5012720;28;20232;-76
2022/10/23 02:06:33;;;;;;;5.00;3.20;;;;;;;;;;5013560;28;20223;-76
2022/10/23 02:08:58;;;;;;;6.03;3.40;;;;;;;;;;5030570;28;20222;-76
2022/10/23 02:11:27;;;;;;;5.07;3.30;;;;;;;;;;5028734;28;20242;-76
2022/10/23 02:14:03;;;;;;;3.90;3.60;;;;;;;;;;5028992;28;20243;-76
2022/10/23 02:16:42;;;;;;;5.50;3.80;;;;;;;;;;5046187;28;20249;-76
2022/10/23 02:19:18;;;;;;;3.47;3.17;;;;;;;;;;5029942;28;20230;-76
2022/10/23 02:22:15;;;;;;;4.70;3.80;;;;;;;;;;5043755;28;20225;-76
2022/10/23 02:24:41;;;;;;;10.30;3.73;;;;;;;;;;5020458;28;20394;-76
2022/10/23 02:27:17;;;;;;;3.87;3.50;;;;;;;;;;5029127;28;20606;-76
2022/10/23 02:29:50;;;;;;;4.67;3.90;;;;;;;;;;5029163;28;20749;-76
2022/10/23 02:32:19;;;;;;;3.57;3.27;;;;;;;;;;5029818;28;21329;-76
2022/10/23 02:34:49;;;;;;;4.20;3.60;;;;;;;;;;5029509;28;20219;-76
2022/10/23 02:37:17;;;;;;;4.10;3.50;;;;;;;;;;5029908;28;20234;-76
2022/10/23 02:39:45;;;;;;;4.33;3.90;;;;;;;;;;5030401;28;20600;-76
2022/10/23 02:42:16;;;;;;;3.80;3.50;;;;;;;;;;5028052;28;20235;-76
2022/10/23 02:44:50;;;;;;;6.33;3.60;;;;;;;;;;5046711;28;20269;-75
2022/10/23 02:47:37;;;;;;;4.77;3.53;;;;;;;;;;5000522;28;20231;-76
2022/10/23 02:50:33;;;;;;;3.90;3.60;;;;;;;;;;5044531;28;20606;-76
2022/10/23 02:53:26;;;;;;;4.10;3.70;;;;;;;;;;5010531;28;20223;-76
2022/10/23 02:55:58;;;;;;;4.07;3.70;;;;;;;;;;5019008;28;20211;-75
2022/10/23 02:58:38;;;;;;;8.53;4.13;;;;;;;;;;5065496;28;20718;-76
2022/10/23 03:01:11;;;;;;;4.57;4.17;;;;;;;;;;5017064;28;20227;-76
2022/10/23 03:03:41;;;;;;;4.10;3.60;;;;;;;;;;5033775;28;20309;-75
2022/10/23 03:06:06;;;;;;;3.70;3.40;;;;;;;;;;5016253;28;20273;-76
2022/10/23 03:09:04;;;;;;;4.77;4.00;;;;;;;;;;5033001;28;20219;-76
2022/10/23 03:11:37;;;;;;;3.87;3.53;;;;;;;;;;5035270;28;20861;-76
2022/10/23 03:14:05;;;;;;;3.53;3.23;;;;;;;;;;5049801;28;20229;-76
2022/10/23 03:16:32;;;;;;;4.23;3.50;;;;;;;;;;5031820;28;20235;-75
2022/10/23 03:18:58;;;;;;;4.73;3.70;;;;;;;;;;5032235;28;20239;-76
2022/10/23 03:21:23;;;;;;;3.67;3.37;;;;;;;;;;5014217;28;20231;-76
2022/10/23 03:23:51;;;;;;;4.67;3.40;;;;;;;;;;5015902;28;20220;-76
2022/10/23 03:26:23;;;;;;;3.67;3.37;;;;;;;;;;5016194;28;20219;-76
2022/10/23 03:28:53;;;;;;;4.63;3.27;;;;;;;;;;5048457;28;20219;-75
2022/10/23 03:31:19;;;;;;;3.43;3.13;;;;;;;;;;5012562;28;20223;-76
2022/10/23 03:33:56;;;;;;;4.30;4.00;;;;;;;;;;5023394;28;20223;-76
2022/10/23 03:36:23;;;;;;;4.10;3.70;;;;;;;;;;5047608;28;20709;-76
2022/10/23 03:38:49;;;;;;;4.23;3.83;;;;;;;;;;5035314;28;20289;-74
2022/10/23 03:41:16;;;;;;;4.50;3.87;;;;;;;;;;5049114;28;20219;-75
2022/10/23 03:43:42;;;;;;;7.83;3.67;;;;;;;;;;5032614;28;20207;-75
2022/10/23 03:46:08;;;;;;;6.23;4.37;;;;;;;;;;5014281;28;20215;-76
2022/10/23 03:48:37;;;;;;;4.43;4.03;;;;;;;;;;5016358;28;20219;-76
2022/10/23 03:51:05;;;;;;;4.70;4.13;;;;;;;;;;5015578;28;20652;-76
2022/10/23 03:53:33;;;;;;;6.23;4.13;;;;;;;;;;5013997;28;20306;-75
2022/10/23 03:56:03;;;;;;;7.70;4.87;;;;;;;;;;5000255;28;20216;-75
2022/10/23 03:58:30;;;;;;;4.83;4.37;;;;;;;;;;5015379;28;20241;-76
2022/10/23 04:00:56;;;;;;;8.50;4.60;;;;;;;;;;5048333;28;20223;-76
2022/10/23 04:03:25;;;;;;;5.10;4.60;;;;;;;;;;5029716;28;20244;-75
2022/10/23 04:05:50;;;;;;;6.87;3.63;;;;;;;;;;5032612;28;20216;-75
2022/10/23 04:08:16;;;;;;;5.10;4.53;;;;;;;;;;5031030;28;20603;-75
2022/10/23 04:10:44;;;;;;;8.50;4.90;;;;;;;;;;5012929;28;20215;-76
2022/10/23 04:13:12;;;;;;;5.37;4.57;;;;;;;;;;5029990;28;20215;-76
2022/10/23 04:15:40;;;;;;;4.70;4.30;;;;;;;;;;5032740;28;20228;-76
2022/10/23 04:18:05;;;;;;;4.90;4.10;;;;;;;;;;5015105;28;20225;-76
2022/10/23 04:20:31;;;;;;;5.50;5.00;;;;;;;;;;5031530;28;20222;-75
2022/10/23 04:23:02;;;;;;;9.20;4.60;;;;;;;;;;5030936;28;20223;-75
2022/10/23 04:25:28;;;;;;;4.93;4.37;;;;;;;;;;5031508;28;20215;-76
2022/10/23 04:27:54;;;;;;;6.47;5.27;;;;;;;;;;4999333;28;20223;-76
2022/10/23 04:30:19;;;;;;;5.77;4.80;;;;;;;;;;5029751;28;20226;-76
2022/10/23 04:32:50;;;;;;;5.20;4.77;;;;;;;;;;5030766;28;20223;-76
2022/10/23 04:35:23;;;;;;;5.60;4.40;;;;;;;;;;5013153;28;20230;-76
2022/10/23 04:37:56;;;;;;;5.03;4.53;;;;;;;;;;5048132;28;20215;-76
2022/10/23 04:40:22;;;;;;;6.13;4.83;;;;;;;;;;5044765;28;20228;-75
2022/10/23 04:42:53;;;;;;;6.13;4.77;;;;;;;;;;5007911;28;20227;-75
2022/10/23 04:45:22;;;;;;;6.20;5.40;;;;;;;;;;5008292;28;20219;-76
2022/10/23 04:47:47;;;;;;;5.60;5.03;;;;;;;;;;5014769;28;20247;-76
2022/10/23 04:50:15;;;;;;;5.53;4.23;;;;;;;;;;5046830;28;20690;-76
2022/10/23 04:53:13;;;;;;;5.33;4.83;;;;;;;;;;5032039;28;20225;-76
2022/10/23 04:56:14;;;;;;;4.50;4.20;;;;;;;;;;5029469;28;20283;-84
2022/10/23 04:58:57;;;;;;;4.27;3.70;;;;;;;;;;4990391;28;20275;-83
2022/10/23 05:01:26;;;;;;;5.27;3.70;;;;;;;;;;4995620;28;20302;-83
2022/10/23 05:03:55;;;;;;;5.17;4.63;;;;;;;;;;5009242;28;20228;-85
2022/10/23 05:06:22;;;;;;;4.63;4.10;;;;;;;;;;5000459;23;21902;-74
2022/10/23 05:08:56;;;;;;;4.90;4.47;;;;;;;;;;5038338;28;20705;-74
2022/10/23 05:11:41;;;;;;;4.00;3.60;;;;;;;;;;5038243;28;20231;-74
2022/10/23 05:14:14;;;;;;;5.33;4.30;;;;;;;;;;5004648;28;20234;-73
2022/10/23 05:16:47;;;;;;;5.30;4.33;;;;;;;;;;5003759;28;20767;-74
2022/10/23 05:19:17;;;;;;;4.60;4.20;;;;;;;;;;5027605;28;20216;-75
2022/10/23 05:21:42;;;;;;;5.27;4.30;;;;;;;;;;5001644;28;20698;-75
2022/10/23 05:24:08;;;;;;;4.43;4.03;;;;;;;;;;4989433;28;20216;-75
2022/10/23 05:26:34;;;;;;;5.00;4.57;;;;;;;;;;5001680;28;20307;-74
2022/10/23 05:29:05;;;;;;;7.60;4.63;;;;;;;;;;5035066;28;20224;-74
2022/10/23 05:31:31;;;;;;;5.03;4.47;;;;;;;;;;5013488;28;20299;-75
2022/10/23 05:34:03;;;;;;;7.33;4.53;;;;;;;;;;4992409;28;20299;-75
2022/10/23 05:36:31;;;;;;;5.43;4.27;;;;;;;;;;4995889;28;20234;-75
2022/10/23 05:38:57;;;;;;;5.40;4.90;;;;;;;;;;5009831;28;20223;-74
2022/10/23 05:41:27;;;;;;;5.20;4.70;;;;;;;;;;5012339;28;20299;-75
2022/10/23 05:44:01;;;;;;;5.60;5.00;;;;;;;;;;4998609;28;20224;-74
2022/10/23 05:47:06;;;;;;;6.20;4.50;;;;;;;;;;5032432;28;20216;-74
2022/10/23 05:49:50;;;;;;;6.83;5.10;;;;;;;;;;5034204;28;20229;-74
2022/10/23 05:52:36;;;;;;;4.93;4.40;;;;;;;;;;5028450;28;20240;-74
2022/10/23 05:55:21;;;;;;;7.03;4.47;;;;;;;;;;5017029;28;20652;-74
2022/10/23 05:58:12;;;;;;;5.63;5.07;;;;;;;;;;5037670;28;20229;-73
2022/10/23 06:00:57;;;;;;;5.97;5.37;;;;;;;;;;5058190;28;20225;-73
2022/10/23 06:03:46;;;;;;;5.87;5.20;;;;;;;;;;5036829;28;20224;-72
2022/10/23 06:06:15;;;;;;;7.07;5.63;;;;;;;;;;5020877;28;20681;-72
2022/10/23 06:08:46;;;;;;;6.63;5.20;;;;;;;;;;5011531;28;20650;-74
2022/10/23 06:11:13;;;;;;;6.53;5.93;;;;;;;;;;5007628;28;20216;-72
2022/10/23 06:13:43;;;;;;;5.93;5.33;;;;;;;;;;5006097;28;20253;-72
2022/10/23 06:16:16;;;;;;;5.60;5.13;;;;;;;;;;5007318;28;20223;-72
2022/10/23 06:18:44;;;;;;;5.50;4.97;;;;;;;;;;5011355;28;20273;-73
2022/10/23 06:21:13;;;;;;;6.47;5.40;;;;;;;;;;5025605;28;20224;-72
2022/10/23 06:23:40;;;;;;;7.80;5.30;;;;;;;;;;5012533;28;20314;-73
2022/10/23 06:26:06;;;;;;;8.00;5.63;;;;;;;;;;5021218;28;20310;-71
2022/10/23 06:28:50;;;;;;;6.23;5.60;;;;;;;;;;5012384;28;20600;-72
2022/10/23 06:31:18;;;;;;;7.87;5.53;;;;;;;;;;5002681;28;20224;-72
2022/10/23 06:33:44;;;;;;;6.63;5.80;;;;;;;;;;5007783;28;20248;-75
2022/10/23 06:36:11;;;;;;;7.20;6.00;;;;;;;;;;4991146;28;20303;-72
2022/10/23 06:38:39;;;;;;;9.43;6.70;;;;;;;;;;4995776;28;20234;-74
2022/10/23 06:41:07;;;;;;;6.80;6.20;;;;;;;;;;5013006;28;20228;-73
2022/10/23 06:43:36;;;;;;;7.13;6.03;;;;;;;;;;5021612;28;20248;-76
2022/10/23 06:46:23;;;;;;;7.33;5.87;;;;;;;;;;5019907;28;20223;-73
2022/10/23 06:49:29;;;;;;;7.03;6.43;;;;;;;;;;4983345;28;20892;-75
2022/10/23 06:52:00;;;;;;;9.10;6.90;;;;;;;;;;4951793;28;20257;-74
2022/10/23 06:54:29;;;;;;;6.80;6.17;;;;;;;;;;4979258;28;20224;-76
2022/10/23 06:57:10;;;;;;;8.13;6.40;;;;;;;;;;5031257;28;20251;-74
2022/10/23 06:59:43;;;;;;;8.70;6.87;;;;;;;;;;5029172;28;20238;-74
2022/10/23 07:02:11;;;;;;;7.73;6.83;;;;;;;;;;5013881;28;20211;-74
2022/10/23 07:04:39;;;;;;;7.00;6.33;;;;;;;;;;4991294;28;20693;-74
2022/10/23 07:07:12;;;;;;;7.37;6.17;;;;;;;;;;4994057;28;20281;-72
2022/10/23 07:09:44;;;;;;;9.53;5.97;;;;;;;;;;5011863;28;20283;-73
2022/10/23 07:12:21;;;;;;;8.23;5.90;;;;;;;;;;5018521;28;20577;-72
2022/10/23 07:14:53;;;;;;;8.07;6.17;;;;;;;;;;5015077;28;20254;-73
2022/10/23 07:17:22;;;;;;;7.80;6.57;;;;;;;;;;5026712;28;20220;-73
2022/10/23 07:19:50;;;;;;;7.77;6.07;;;;;;;;;;5009231;28;20227;-75
2022/10/23 07:22:16;;;;;;;6.50;5.90;;;;;;;;;;4996885;28;20674;-74
2022/10/23 07:24:45;;;;;;;7.83;6.00;;;;;;;;;;5025041;28;20224;-78
2022/10/23 07:27:23;;;;;;;9.50;6.27;;;;;;;;;;5016517;28;20230;-75
2022/10/23 07:29:55;;;;;;;6.20;5.57;;;;;;;;;;5014520;28;20223;-73
2022/10/23 07:32:26;;;;;;;6.67;6.03;;;;;;;;;;5007911;28;20223;-74
2022/10/23 07:35:10;;;;;;;9.43;5.90;;;;;;;;;;5028883;28;20215;-74
2022/10/23 07:37:38;;;;;;;6.50;5.83;;;;;;;;;;5029068;28;20219;-75
2022/10/23 07:40:07;;;;;;;6.93;6.33;;;;;;;;;;5020729;28;20232;-74
2022/10/23 07:42:41;;;;;;;7.23;5.90;;;;;;;;;;5006813;28;20218;-74
2022/10/23 07:45:07;;;;;;;8.40;6.23;;;;;;;;;;5015488;28;20219;-73
2022/10/23 07:47:35;;;;;;;9.40;6.07;;;;;;;;;;4997815;28;20353;-72
2022/10/23 07:50:02;;;;;;;8.53;5.90;;;;;;;;;;5031334;28;20223;-72
2022/10/23 07:52:31;;;;;;;7.70;6.57;;;;;;;;;;5021515;28;20220;-72
2022/10/23 07:55:11;;;;;;;7.07;5.90;;;;;;;;;;5014988;28;20234;-74
2022/10/23 07:57:42;;;;;;;8.10;6.20;;;;;;;;;;5030637;28;20220;-72
2022/10/23 08:00:57;;;;;;;8.43;5.97;;;;;;;;;;5043021;28;20215;-73
2022/10/23 08:03:30;;;;;;;7.30;6.23;;;;;;;;;;5035760;28;20223;-73
2022/10/23 08:05:59;;;;;;;7.37;5.90;;;;;;;;;;5037537;28;20215;-72
2022/10/23 08:08:26;;;;;;;6.67;5.60;;;;;;;;;;5033363;28;20219;-72
2022/10/23 08:10:57;;;;;;;6.50;5.90;;;;;;;;;;5031186;28;20330;-72
2022/10/23 08:13:28;;;;;;;9.23;5.90;;;;;;;;;;5038579;28;20216;-73
2022/10/23 08:16:01;;;;;;;6.80;6.10;;;;;;;;;;5028551;28;20224;-72
2022/10/23 08:19:06;;;;;;;6.40;5.50;;;;;;;;;;4958952;28;20225;-72
2022/10/23 08:21:33;;;;;;;7.53;5.33;;;;;;;;;;4950723;28;20666;-73
2022/10/23 08:23:59;;;;;;;7.07;4.93;;;;;;;;;;4990921;28;20266;-72
2022/10/23 08:26:28;;;;;;;8.00;5.27;;;;;;;;;;5009431;28;20216;-73
2022/10/23 08:29:02;;;;;;;5.97;4.87;;;;;;;;;;4992783;28;20239;-73
2022/10/23 08:31:31;;;;;;;7.83;5.60;;;;;;;;;;5005916;28;20313;-74
2022/10/23 08:34:20;;;;;;;7.43;5.20;;;;;;;;;;5045796;28;20227;-73
2022/10/23 08:36:48;;;;;;;5.30;4.80;;;;;;;;;;5003242;28;20230;-72
2022/10/23 08:39:14;;;;;;;8.73;5.33;;;;;;;;;;5026244;28;20218;-73
2022/10/23 08:41:54;;;;;;;4.67;4.20;;;;;;;;;;5047200;28;20219;-73
2022/10/23 08:45:07;;;;;;;6.00;5.00;;;;;;;;;;5037243;28;20798;-74
2022/10/23 08:47:56;;;;;;;10.00;5.17;;;;;;;;;;5027206;28;20218;-75
2022/10/23 08:50:58;;;;;;;5.60;4.70;;;;;;;;;;5005693;28;20212;-71
2022/10/23 08:53:42;;;;;;;5.73;4.53;;;;;;;;;;5026753;28;20239;-74
2022/10/23 08:56:23;;;;;;;9.60;6.27;;;;;;;;;;5017579;28;20253;-77
2022/10/23 08:58:53;;;;;;;7.20;4.40;;;;;;;;;;5014257;28;20347;-77
2022/10/23 09:01:35;;;;;;;4.90;4.03;;;;;;;;;;5009944;28;20263;-74
2022/10/23 09:04:01;;;;;;;6.40;4.23;;;;;;;;;;5011852;28;20298;-75
2022/10/23 09:06:33;;;;;;;6.73;4.10;;;;;;;;;;5022578;28;20647;-73
2022/10/23 09:09:09;;;;;;;6.90;4.60;;;;;;;;;;5023217;28;20605;-74
2022/10/23 09:11:41;;;;;;;5.00;4.10;;;;;;;;;;5044315;28;20230;-74
2022/10/23 09:14:35;;;;;;;4.30;3.93;;;;;;;;;;5026351;28;20232;-73
2022/10/23 09:17:28;;;;;;;6.63;3.90;;;;;;;;;;5017054;28;20216;-75
2022/10/23 09:20:24;;;;;;;6.35;3.78;;;;;;;;;;5051957;28;20257;-72
2022/10/23 09:23:13;;;;;;;4.70;3.50;;;;;;;;;;5006799;28;20249;-73
2022/10/23 09:25:40;;;;;;;7.03;3.90;;;;;;;;;;5044176;28;20211;-77
2022/10/23 09:28:05;;;;;;;5.22;3.55;;;;;;;;;;5050156;28;20254;-73
2022/10/23 09:30:31;;;;;;;5.18;3.55;;;;;;;;;;5038272;28;20234;-74
2022/10/23 09:33:00;;;;;;;4.35;3.42;;;;;;;;;;5061442;28;20317;-74
2022/10/23 09:35:27;;;;;;;4.20;3.05;;;;;;;;;;5042708;28;20226;-74
2022/10/23 09:37:53;;;;;;;5.65;3.40;;;;;;;;;;5042412;28;20214;-74
2022/10/23 09:40:45;;;;;;;4.78;3.25;;;;;;;;;;5058093;28;20231;-71
2022/10/23 09:43:14;;;;;;;3.88;3.40;;;;;;;;;;5034397;28;20222;-72
2022/10/23 09:45:42;;;;;;;3.63;3.20;;;;;;;;;;5020904;28;20220;-72
2022/10/23 09:48:17;;;;;;;4.70;3.40;;;;;;;;;;5026837;28;20290;-72
2022/10/23 09:50:57;;;;;;;5.32;3.22;;;;;;;;;;4997993;28;20216;-74
2022/10/23 09:53:33;;;;;;;3.33;3.03;;;;;;;;;;5045088;28;20219;-74
2022/10/23 09:56:02;;;;;;;4.53;3.05;;;;;;;;;;5027229;28;20310;-72
2022/10/23 09:58:33;;;;;;;3.67;3.10;;;;;;;;;;4992281;28;20286;-71
2022/10/23 10:00:58;;;;;;;5.97;3.13;;;;;;;;;;5023420;28;20231;-72
2022/10/23 10:03:47;;;;;;;5.45;3.05;;;;;;;;;;5026367;28;20207;-72
2022/10/23 10:06:24;;;;;;;4.93;3.13;;;;;;;;;;5041863;28;20215;-74
2022/10/23 10:08:52;;;;;;;4.55;3.00;;;;;;;;;;5024803;28;20219;-73
2022/10/23 10:11:20;;;;;;;3.05;2.80;;;;;;;;;;5032953;28;20224;-74
2022/10/23 10:13:58;;;;;;;3.33;2.97;;;;;;;;;;5022657;28;20319;-74
2022/10/23 10:16:42;;;;;;;4.82;3.10;;;;;;;;;;5051546;28;20215;-72
2022/10/23 10:19:41;;;;;;;2.97;2.67;;;;;;;;;;5033052;28;20223;-75
2022/10/23 10:22:46;;;;;;;3.50;2.60;;;;;;;;;;5020854;28;20269;-74
2022/10/23 10:25:25;;;;;;;5.07;2.70;;;;;;;;;;5053504;28;20238;-75
2022/10/23 10:28:19;;;;;;;3.17;2.50;;;;;;;;;;5021558;28;20216;-74
2022/10/23 10:34:43;;;;;;;3.50;2.15;;;;;;;;;;5014445;28;20321;-80
2022/10/23 10:37:18;;;;;;;3.00;2.17;;;;;;;;;;5028980;28;20231;-79
2022/10/23 10:40:06;;;;;;;4.85;2.40;;;;;;;;;;5042062;22;20857;-72
2022/10/23 10:43:09;;;;;;;2.55;2.08;;;;;;;;;;5003656;28;20228;-73
2022/10/23 10:49:22;;;;;;;2.35;1.80;;;;;;;;;;5010815;28;20338;-76
2022/10/23 10:52:34;;;;;;;3.97;1.98;;;;;;;;;;5010461;28;20203;-78
2022/10/23 10:59:22;;;;;;;3.00;2.05;;;;;;;;;;4974699;28;20648;-73
2022/10/23 11:09:30;;;;;;;3.90;2.10;;;;;;;;;;4906843;28;20245;-73
2022/10/23 11:12:23;;;;;;;4.10;2.08;;;;;;;;;;4881719;28;20282;-74
2022/10/23 11:14:49;;;;;;;3.33;1.70;;;;;;;;;;4933628;28;20221;-72
2022/10/23 11:17:26;;;;;;;3.15;2.03;;;;;;;;;;5003760;28;20220;-73
2022/10/23 11:20:08;;;;;;;4.10;1.77;;;;;;;;;;5030020;28;20249;-72
2022/10/23 11:22:45;;;;;;;2.85;1.60;;;;;;;;;;5028825;28;20882;-73
2022/10/23 11:25:46;;;;;;;3.05;1.60;;;;;;;;;;5023580;28;20227;-73
2022/10/23 11:28:17;;;;;;;4.15;1.90;;;;;;;;;;4999678;28;20286;-73
2022/10/23 11:30:58;;;;;;;1.67;1.30;;;;;;;;;;5040510;28;20701;-73
2022/10/23 11:33:52;;;;;;;4.28;1.40;;;;;;;;;;5037145;28;20366;-74
2022/10/23 11:36:39;;;;;;;5.97;1.83;;;;;;;;;;5022836;28;20302;-74
2022/10/23 11:39:24;;;;;;;2.58;1.42;;;;;;;;;;5009518;28;20360;-73
2022/10/23 11:41:57;;;;;;;4.05;1.67;;;;;;;;;;5025756;28;20212;-74
2022/10/23 11:44:27;;;;;;;1.85;1.38;;;;;;;;;;5017376;28;20223;-74
2022/10/23 11:47:04;;;;;;;2.40;1.45;;;;;;;;;;5011107;28;20222;-74
2022/10/23 11:49:29;;;;;;;2.40;1.40;;;;;;;;;;5013295;28;20640;-73
2022/10/23 11:52:04;;;;;;;3.25;1.50;;;;;;;;;;4993213;28;20223;-75
2022/10/23 11:54:30;;;;;;;2.40;1.50;;;;;;;;;;5010608;28;20235;-75
2022/10/23 11:57:01;;;;;;;4.85;1.52;;;;;;;;;;4997496;28;20208;-74
2022/10/23 11:59:29;;;;;;;2.13;1.40;;;;;;;;;;5018384;28;20272;-72
2022/10/23 12:01:55;;;;;;;2.92;1.35;;;;;;;;;;5008999;28;20306;-72
2022/10/23 12:04:26;;;;;;;1.73;1.27;;;;;;;;;;5012895;28;20305;-74
2022/10/23 12:07:01;;;;;;;3.30;1.23;;;;;;;;;;5010531;28;20278;-71
2022/10/23 12:09:54;;;;;;;2.42;1.42;;;;;;;;;;4995718;28;20302;-75
2022/10/23 12:12:26;;;;;;;2.45;1.20;;;;;;;;;;5019943;28;20230;-74
2022/10/23 12:15:04;;;;;;;2.30;1.38;;;;;;;;;;5025804;28;20215;-71
2022/10/23 12:17:34;;;;;;;3.20;1.40;;;;;;;;;;5017447;28;20227;-74
2022/10/23 12:20:10;;;;;;;2.47;1.25;;;;;;;;;;5022564;28;20219;-72
2022/10/23 12:22:45;;;;;;;3.17;1.60;;;;;;;;;;5005912;28;20219;-71
2022/10/23 12:25:19;;;;;;;3.88;1.52;;;;;;;;;;5021038;28;20735;-73
2022/10/23 12:27:56;;;;;;;11.15;1.73;;;;;;;;;;5014228;28;20212;-72
2022/10/23 12:30:45;;;;;;;1.95;1.20;;;;;;;;;;4990549;28;20219;-72
2022/10/23 12:33:19;;;;;;;2.55;1.10;;;;;;;;;;5022388;28;20207;-73
2022/10/23 12:35:51;;;;;;;2.15;1.23;;;;;;;;;;5022440;28;20230;-72
2022/10/23 12:38:18;;;;;;;1.63;1.25;;;;;;;;;;5036328;28;20351;-74
2022/10/23 12:40:51;;;;;;;2.05;1.13;;;;;;;;;;5006745;28;20224;-72
2022/10/23 12:43:33;;;;;;;8.10;1.48;;;;;;;;;;5021049;28;20246;-73
2022/10/23 12:46:32;;;;;;;2.60;1.40;;;;;;;;;;5006838;28;20211;-72
2022/10/23 12:49:04;;;;;;;1.70;1.30;;;;;;;;;;5016061;28;20223;-73
2022/10/23 12:51:33;;;;;;;5.00;1.52;;;;;;;;;;5002373;28;20224;-72
2022/10/23 12:54:03;;;;;;;1.38;1.10;;;;;;;;;;4987072;28;20229;-71
2022/10/23 12:56:35;;;;;;;5.00;1.45;;;;;;;;;;5010709;28;20301;-73
2022/10/23 12:59:02;;;;;;;1.77;1.25;;;;;;;;;;5032572;28;20240;-73
2022/10/23 13:01:32;;;;;;;3.22;1.27;;;;;;;;;;4971521;28;20370;-73
2022/10/23 13:04:27;;;;;;;1.92;1.35;;;;;;;;;;5013443;28;20228;-73
2022/10/23 13:06:54;;;;;;;4.55;1.15;;;;;;;;;;5005332;28;20223;-72
2022/10/23 13:09:26;;;;;;;4.40;1.50;;;;;;;;;;5006405;28;20235;-73
2022/10/23 13:12:26;;;;;;;2.63;1.40;;;;;;;;;;5003154;28;20712;-72
2022/10/23 13:15:09;;;;;;;3.05;1.35;;;;;;;;;;5020103;28;20219;-73
2022/10/23 13:17:39;;;;;;;1.67;1.30;;;;;;;;;;5022232;28;20227;-73
2022/10/23 13:20:34;;;;;;;2.30;1.30;;;;;;;;;;5022872;28;20374;-72
2022/10/23 13:23:06;;;;;;;2.03;1.17;;;;;;;;;;4999590;28;20220;-72
2022/10/23 13:25:32;;;;;;;1.80;1.15;;;;;;;;;;5024212;28;20310;-73
2022/10/23 13:28:07;;;;;;;3.92;1.33;;;;;;;;;;5006659;28;20243;-73
2022/10/23 13:30:38;;;;;;;1.40;1.20;;;;;;;;;;5021595;28;20227;-72
2022/10/23 13:33:39;;;;;;;3.08;1.40;;;;;;;;;;5005485;28;20318;-73
2022/10/23 13:36:19;;;;;;;2.17;1.23;;;;;;;;;;4998888;28;20677;-73
2022/10/23 13:38:58;;;;;;;3.05;1.25;;;;;;;;;;5027816;28;20214;-73
2022/10/23 13:41:26;;;;;;;2.40;1.30;;;;;;;;;;5024872;28;20751;-72
2022/10/23 13:43:52;;;;;;;1.60;1.17;;;;;;;;;;4995560;28;20296;-73
2022/10/23 13:46:24;;;;;;;2.10;1.10;;;;;;;;;;5005224;28;20216;-74
2022/10/23 13:48:50;;;;;;;2.03;1.50;;;;;;;;;;5002855;28;20215;-72
2022/10/23 13:51:21;;;;;;;4.95;1.40;;;;;;;;;;4987794;28;20274;-72
2022/10/23 13:53:47;;;;;;;4.95;1.20;;;;;;;;;;5016529;28;20818;-72
2022/10/23 13:56:16;;;;;;;2.47;1.20;;;;;;;;;;5018780;28;20262;-71
2022/10/23 13:58:42;;;;;;;2.63;1.20;;;;;;;;;;4992106;28;20962;-72
2022/10/23 14:01:21;;;;;;;1.63;1.30;;;;;;;;;;4991345;28;20215;-73
2022/10/23 14:03:50;;;;;;;1.45;1.05;;;;;;;;;;4996974;28;20221;-71
2022/10/23 14:06:16;;;;;;;3.72;1.30;;;;;;;;;;5007483;28;20770;-73
2022/10/23 14:08:43;;;;;;;2.08;1.15;;;;;;;;;;5016360;28;20310;-71
2022/10/23 14:11:12;;;;;;;2.22;1.30;;;;;;;;;;5004227;28;20223;-72
2022/10/23 14:13:37;;;;;;;3.15;1.20;;;;;;;;;;5011524;28;20222;-71
2022/10/23 14:16:03;;;;;;;2.03;1.27;;;;;;;;;;5022421;28;20222;-73
2022/10/23 14:18:28;;;;;;;2.80;1.30;;;;;;;;;;4994597;28;20231;-71
2022/10/23 14:20:54;;;;;;;1.88;1.48;;;;;;;;;;5005359;28;20239;-71
2022/10/23 14:23:19;;;;;;;1.48;1.08;;;;;;;;;;4992273;28;20212;-71
2022/10/23 14:25:45;;;;;;;1.27;1.17;;;;;;;;;;5020600;28;20709;-72
2022/10/23 14:28:10;;;;;;;1.85;1.30;;;;;;;;;;5023261;28;20231;-73
2022/10/23 14:30:37;;;;;;;2.45;1.17;;;;;;;;;;5024746;28;20228;-71
2022/10/23 14:33:03;;;;;;;8.70;1.88;;;;;;;;;;5006335;28;20220;-72
2022/10/23 14:35:28;;;;;;;1.90;1.40;;;;;;;;;;5006495;28;20223;-73
2022/10/23 14:37:54;;;;;;;2.10;1.33;;;;;;;;;;4989740;28;20614;-71
2022/10/23 14:40:19;;;;;;;1.52;1.13;;;;;;;;;;4993873;28;20219;-72
2022/10/23 14:42:47;;;;;;;1.85;1.33;;;;;;;;;;5007066;28;20303;-71
2022/10/23 14:45:15;;;;;;;1.83;1.10;;;;;;;;;;4992031;28;20211;-73
2022/10/23 14:47:41;;;;;;;3.00;1.40;;;;;;;;;;5010415;28;20210;-72
2022/10/23 14:50:11;;;;;;;1.30;1.20;;;;;;;;;;5019429;28;20267;-73
2022/10/23 14:52:38;;;;;;;1.92;1.20;;;;;;;;;;5005069;28;20310;-71
2022/10/23 14:55:04;;;;;;;1.98;1.30;;;;;;;;;;5024200;28;20219;-71
2022/10/23 14:57:31;;;;;;;2.33;1.40;;;;;;;;;;5000641;28;20448;-71
2022/10/23 14:59:57;;;;;;;3.47;1.20;;;;;;;;;;5024595;28;20220;-71
2022/10/23 15:02:25;;;;;;;3.17;1.73;;;;;;;;;;5037392;28;20235;-71
2022/10/23 15:04:51;;;;;;;1.20;1.10;;;;;;;;;;4976425;28;20220;-72
2022/10/23 15:07:16;;;;;;;2.22;1.60;;;;;;;;;;5010110;28;20266;-71
2022/10/23 15:09:42;;;;;;;2.17;1.27;;;;;;;;;;5022715;28;20219;-75
2022/10/23 15:12:07;;;;;;;2.85;1.38;;;;;;;;;;5030585;28;20214;-71
2022/10/23 15:14:36;;;;;;;2.78;1.50;;;;;;;;;;5001803;28;20581;-74
2022/10/23 15:17:03;;;;;;;1.30;1.20;;;;;;;;;;5025678;28;20219;-71
2022/10/23 15:19:28;;;;;;;2.95;1.63;;;;;;;;;;4992501;28;20274;-72
2022/10/23 15:21:54;;;;;;;2.58;1.50;;;;;;;;;;5013520;28;20219;-72
2022/10/23 15:24:19;;;;;;;4.15;1.65;;;;;;;;;;5013272;28;20220;-72
2022/10/23 15:26:48;;;;;;;2.78;1.70;;;;;;;;;;5022547;28;20446;-73
2022/10/23 15:29:14;;;;;;;1.90;1.40;;;;;;;;;;5011817;28;20219;-72
2022/10/23 15:31:41;;;;;;;5.32;1.92;;;;;;;;;;4970980;28;20235;-70
2022/10/23 15:34:15;;;;;;;2.05;1.52;;;;;;;;;;5039711;28;20238;-72
2022/10/23 15:36:41;;;;;;;1.98;1.50;;;;;;;;;;5010087;28;20224;-72
2022/10/23 15:39:09;;;;;;;1.63;1.20;;;;;;;;;;5012241;28;20307;-74